Time;durP1;ratioP1;P1;durP2;ratioP2;P2;SDS_P1;SDS_P2;PMS_P1;PMS_P2;Temp;Humidity;BMP_temperature;BMP_pressure;BME280_temperature;BME280_humidity;BME280_pressure;Samples;Min_cycle;Max_cycle;Signal;HPM_P1;HPM_P2
2022/07/31 00:01:52;;;;;;;3.40;3.07;;;24.70;57.60;;;;;;4994818;28;20503;-70
2022/07/31 00:04:19;;;;;;;3.37;3.17;;;24.60;57.60;;;;;;4994483;28;20969;-71
2022/07/31 00:06:46;;;;;;;3.37;3.07;;;24.60;57.50;;;;;;4994393;28;20855;-71
2022/07/31 00:09:14;;;;;;;3.27;3.07;;;24.60;57.40;;;;;;4994640;28;20467;-70
2022/07/31 00:11:42;;;;;;;6.43;3.50;;;24.60;57.50;;;;;;4994474;28;20498;-70
2022/07/31 00:14:09;;;;;;;4.20;3.37;;;24.50;57.30;;;;;;4994652;28;20448;-71
2022/07/31 00:16:37;;;;;;;3.30;2.70;;;24.50;57.40;;;;;;4994570;28;20456;-71
2022/07/31 00:19:04;;;;;;;3.85;3.08;;;24.50;57.50;;;;;;4994027;28;20452;-71
2022/07/31 00:21:30;;;;;;;3.13;2.60;;;24.60;57.30;;;;;;4994349;28;20205;-70
2022/07/31 00:23:57;;;;;;;4.30;3.10;;;24.60;56.10;;;;;;4994599;28;20453;-71
2022/07/31 00:26:24;;;;;;;10.00;3.37;;;24.60;53.30;;;;;;4994385;28;20490;-71
2022/07/31 00:28:50;;;;;;;5.37;2.70;;;24.60;52.30;;;;;;4994349;28;20448;-70
2022/07/31 00:31:18;;;;;;;6.30;3.10;;;24.60;52.00;;;;;;4994077;28;20964;-68
2022/07/31 00:33:46;;;;;;;2.70;2.50;;;24.60;51.90;;;;;;4994459;28;20988;-71
2022/07/31 00:36:13;;;;;;;4.20;2.90;;;24.60;51.90;;;;;;4994012;28;20946;-71
2022/07/31 00:38:40;;;;;;;4.10;3.00;;;24.60;52.10;;;;;;4994057;28;20479;-70
2022/07/31 00:41:08;;;;;;;4.87;3.33;;;24.60;52.00;;;;;;4994237;28;20503;-70
2022/07/31 00:43:34;;;;;;;10.23;3.37;;;24.60;52.00;;;;;;4993942;28;20455;-71
2022/07/31 00:46:01;;;;;;;4.67;3.20;;;24.60;52.00;;;;;;4993882;28;20463;-71
2022/07/31 00:48:28;;;;;;;4.10;3.10;;;24.50;52.20;;;;;;4994202;28;20515;-71
2022/07/31 00:50:56;;;;;;;3.97;2.83;;;24.50;52.20;;;;;;4994080;28;20471;-70
2022/07/31 00:53:24;;;;;;;3.43;2.43;;;24.50;52.30;;;;;;4993827;28;20459;-70
2022/07/31 00:55:50;;;;;;;4.80;3.17;;;24.50;52.30;;;;;;4994170;28;20551;-70
2022/07/31 00:58:17;;;;;;;3.60;2.80;;;24.50;52.60;;;;;;4994122;28;20445;-70
2022/07/31 01:00:44;;;;;;;5.63;3.07;;;24.40;52.50;;;;;;4993651;28;21011;-70
2022/07/31 01:03:11;;;;;;;3.40;2.30;;;24.50;52.20;;;;;;4993709;28;20938;-70
2022/07/31 01:05:37;;;;;;;4.63;3.30;;;24.40;52.30;;;;;;4994060;28;20532;-70
2022/07/31 01:08:06;;;;;;;4.53;3.00;;;24.40;52.30;;;;;;4993947;28;20849;-70
2022/07/31 01:10:42;;;;;;;4.30;2.60;;;24.30;52.50;;;;;;4993555;28;20931;-70
2022/07/31 01:13:15;;;;;;;4.13;3.13;;;24.40;52.40;;;;;;4993706;28;20466;-71
2022/07/31 01:15:43;;;;;;;4.43;2.50;;;24.40;52.30;;;;;;4993728;28;20448;-71
2022/07/31 01:18:13;;;;;;;2.67;2.13;;;24.40;52.30;;;;;;4993611;28;20459;-71
2022/07/31 01:20:43;;;;;;;2.40;2.20;;;24.40;52.90;;;;;;4993781;28;20472;-70
2022/07/31 01:23:41;;;;;;;5.07;2.90;;;24.30;52.80;;;;;;4993923;28;20441;-71
2022/07/31 01:26:19;;;;;;;6.93;2.90;;;24.40;52.50;;;;;;4993883;28;20479;-71
2022/07/31 01:29:00;;;;;;;3.27;2.33;;;24.40;52.20;;;;;;4993736;28;20428;-70
2022/07/31 01:31:33;;;;;;;6.03;2.73;;;24.40;52.30;;;;;;4993797;28;20432;-70
2022/07/31 01:34:07;;;;;;;4.30;3.03;;;24.40;52.40;;;;;;4993831;28;20439;-71
2022/07/31 01:36:36;;;;;;;6.87;3.37;;;24.40;52.80;;;;;;4993770;28;20444;-71
2022/07/31 01:39:04;;;;;;;7.40;3.20;;;24.40;52.50;;;;;;4993706;28;20476;-70
2022/07/31 01:41:36;;;;;;;2.93;2.43;;;24.40;52.70;;;;;;4993635;28;20508;-70
2022/07/31 01:44:05;;;;;;;2.83;2.33;;;24.30;52.70;;;;;;4993771;28;20437;-71
2022/07/31 01:46:34;;;;;;;6.57;3.10;;;24.30;52.40;;;;;;4994417;28;20458;-71
2022/07/31 01:49:02;;;;;;;4.00;3.17;;;24.30;52.60;;;;;;4993535;28;20499;-70
2022/07/31 01:51:30;;;;;;;4.27;2.90;;;24.30;52.40;;;;;;4997304;28;20452;-70
2022/07/31 01:54:00;;;;;;;4.13;2.83;;;24.30;52.80;;;;;;4997285;28;20452;-71
2022/07/31 01:56:28;;;;;;;3.30;3.00;;;24.20;52.70;;;;;;4997489;28;20893;-71
2022/07/31 01:58:56;;;;;;;2.70;2.53;;;24.30;52.70;;;;;;4997047;28;20598;-70
2022/07/31 02:01:25;;;;;;;2.90;2.60;;;24.20;52.80;;;;;;4997038;28;20459;-70
2022/07/31 02:03:53;;;;;;;2.53;2.17;;;24.20;52.90;;;;;;4997099;28;20543;-70
2022/07/31 02:06:22;;;;;;;4.93;3.43;;;24.20;52.70;;;;;;4996705;28;20946;-70
2022/07/31 02:08:51;;;;;;;6.57;3.00;;;24.20;53.10;;;;;;4996750;28;21010;-70
2022/07/31 02:11:19;;;;;;;6.07;3.23;;;24.10;53.90;;;;;;4996623;28;20813;-70
2022/07/31 02:13:47;;;;;;;2.77;2.57;;;23.90;54.40;;;;;;4996957;28;20480;-71
2022/07/31 02:16:16;;;;;;;4.10;2.67;;;23.80;54.70;;;;;;4996827;28;20448;-71
2022/07/31 02:18:44;;;;;;;12.57;3.70;;;23.80;54.60;;;;;;4996672;28;20455;-70
2022/07/31 02:21:11;;;;;;;8.50;3.40;;;23.80;54.70;;;;;;4996192;28;20452;-71
2022/07/31 02:23:38;;;;;;;6.77;3.23;;;23.80;55.20;;;;;;4996754;28;20451;-71
2022/07/31 02:26:05;;;;;;;15.10;4.00;;;23.80;55.40;;;;;;4996694;28;20448;-71
2022/07/31 02:28:34;;;;;;;4.23;3.27;;;23.80;54.60;;;;;;4996555;28;20480;-70
2022/07/31 02:31:02;;;;;;;6.47;3.00;;;23.80;54.50;;;;;;4996519;28;20475;-70
2022/07/31 02:33:30;;;;;;;9.37;3.00;;;23.80;54.30;;;;;;4996189;28;20838;-70
2022/07/31 02:35:59;;;;;;;6.80;3.10;;;23.80;54.30;;;;;;4996238;28;20972;-70
2022/07/31 02:38:27;;;;;;;7.70;3.63;;;23.70;54.10;;;;;;4996453;28;20448;-71
2022/07/31 02:40:58;;;;;;;6.00;3.50;;;23.80;54.00;;;;;;4996355;28;20479;-70
2022/07/31 02:44:01;;;;;;;10.70;3.07;;;23.70;54.00;;;;;;4996472;28;20806;-71
2022/07/31 02:46:29;;;;;;;5.60;3.03;;;23.70;54.10;;;;;;4997029;28;20452;-71
2022/07/31 02:48:57;;;;;;;9.30;3.57;;;23.70;54.30;;;;;;4996122;28;20480;-70
2022/07/31 02:51:26;;;;;;;8.20;2.87;;;23.80;54.00;;;;;;4996464;28;20445;-69
2022/07/31 02:53:53;;;;;;;8.33;3.43;;;23.70;53.90;;;;;;4996094;28;20806;-69
2022/07/31 02:56:20;;;;;;;10.77;3.20;;;23.70;54.00;;;;;;4996140;28;20786;-69
2022/07/31 02:58:47;;;;;;;6.27;2.83;;;23.70;54.20;;;;;;4996075;28;20444;-69
2022/07/31 03:01:14;;;;;;;9.67;3.00;;;23.70;54.20;;;;;;4996029;28;20448;-69
2022/07/31 03:03:41;;;;;;;10.50;3.67;;;23.70;54.40;;;;;;4995618;28;20818;-69
2022/07/31 03:06:07;;;;;;;6.80;2.80;;;23.70;54.20;;;;;;4995984;28;20459;-69
2022/07/31 03:08:35;;;;;;;5.57;3.10;;;23.70;54.10;;;;;;4995994;28;20484;-69
2022/07/31 03:11:02;;;;;;;5.33;3.20;;;23.70;54.30;;;;;;4995919;28;20810;-69
2022/07/31 03:13:31;;;;;;;5.57;2.60;;;23.70;54.00;;;;;;4995554;28;20933;-68
2022/07/31 03:15:59;;;;;;;8.60;2.93;;;23.70;54.00;;;;;;4995778;28;20458;-68
2022/07/31 03:18:26;;;;;;;10.13;3.33;;;23.70;54.10;;;;;;4995685;28;20455;-69
2022/07/31 03:20:56;;;;;;;6.90;2.70;;;23.70;53.60;;;;;;4995029;28;20572;-69
2022/07/31 03:23:26;;;;;;;7.23;3.23;;;23.60;53.60;;;;;;4995371;28;20459;-68
2022/07/31 03:25:55;;;;;;;8.87;3.40;;;23.60;54.30;;;;;;4995605;28;20440;-68
2022/07/31 03:28:22;;;;;;;4.97;3.20;;;23.60;54.10;;;;;;4995148;28;20583;-68
2022/07/31 03:30:52;;;;;;;5.07;3.33;;;23.50;54.10;;;;;;4995178;28;20978;-68
2022/07/31 03:33:19;;;;;;;4.83;2.60;;;23.50;54.10;;;;;;4995369;28;20452;-69
2022/07/31 03:35:46;;;;;;;6.63;2.77;;;23.50;54.60;;;;;;4995056;28;20513;-69
2022/07/31 03:38:13;;;;;;;4.90;3.00;;;23.50;55.00;;;;;;4995334;28;20470;-69
2022/07/31 03:40:40;;;;;;;7.50;2.60;;;23.40;55.00;;;;;;4995149;28;20457;-69
2022/07/31 03:43:08;;;;;;;4.83;2.60;;;23.40;55.70;;;;;;4994923;28;20444;-69
2022/07/31 03:45:36;;;;;;;3.53;2.97;;;23.20;55.50;;;;;;4995183;28;20474;-69
2022/07/31 03:48:03;;;;;;;3.80;2.57;;;23.20;55.80;;;;;;4994761;28;20997;-69
2022/07/31 03:50:30;;;;;;;2.77;2.33;;;23.10;56.10;;;;;;4994656;28;20996;-69
2022/07/31 03:52:58;;;;;;;7.13;3.30;;;23.10;56.30;;;;;;4994739;28;20945;-69
2022/07/31 03:55:26;;;;;;;3.30;2.57;;;23.00;56.50;;;;;;4995021;28;20448;-69
2022/07/31 03:57:53;;;;;;;5.43;2.37;;;22.80;57.40;;;;;;4994630;28;20942;-69
2022/07/31 04:00:25;;;;;;;4.33;2.60;;;22.70;57.30;;;;;;4994769;28;20475;-69
2022/07/31 04:02:54;;;;;;;4.33;2.37;;;22.70;57.60;;;;;;4994799;28;20437;-68
2022/07/31 04:05:20;;;;;;;7.10;2.73;;;22.60;58.00;;;;;;4994543;28;20455;-69
2022/07/31 04:07:47;;;;;;;3.60;2.50;;;22.50;58.50;;;;;;4994422;28;20997;-69
2022/07/31 04:10:14;;;;;;;3.07;2.17;;;22.40;58.30;;;;;;4994611;28;20475;-69
2022/07/31 04:12:41;;;;;;;3.40;2.70;;;22.40;58.70;;;;;;4993965;28;20464;-69
2022/07/31 04:15:08;;;;;;;2.80;2.40;;;22.40;59.00;;;;;;4994384;28;20507;-69
2022/07/31 04:17:37;;;;;;;3.10;2.40;;;22.40;59.40;;;;;;4994620;28;20445;-69
2022/07/31 04:20:04;;;;;;;3.10;2.00;;;22.30;59.60;;;;;;4994470;28;20472;-69
2022/07/31 04:22:31;;;;;;;3.90;2.40;;;22.40;59.50;;;;;;4994560;28;20455;-69
2022/07/31 04:24:57;;;;;;;4.00;2.83;;;22.30;59.40;;;;;;4994514;28;20447;-69
2022/07/31 04:27:24;;;;;;;3.83;2.43;;;22.30;59.60;;;;;;4994417;28;20444;-69
2022/07/31 04:29:51;;;;;;;2.87;2.53;;;22.30;59.70;;;;;;4994364;28;20538;-69
2022/07/31 04:32:18;;;;;;;2.57;2.37;;;22.20;60.10;;;;;;4994108;28;20957;-69
2022/07/31 04:34:46;;;;;;;2.77;2.50;;;22.20;60.30;;;;;;4994402;28;20448;-69
2022/07/31 04:37:12;;;;;;;8.40;2.40;;;22.20;60.50;;;;;;4994397;28;20452;-69
2022/07/31 04:39:39;;;;;;;2.70;2.50;;;22.20;61.30;;;;;;4994177;28;20981;-69
2022/07/31 04:42:07;;;;;;;3.53;2.60;;;22.20;61.30;;;;;;4994247;28;20478;-69
2022/07/31 04:44:33;;;;;;;6.60;2.50;;;22.20;61.60;;;;;;4995125;28;20452;-69
2022/07/31 04:47:00;;;;;;;3.77;2.40;;;22.00;61.90;;;;;;4994218;28;20452;-68
2022/07/31 04:49:29;;;;;;;2.80;2.13;;;22.00;62.70;;;;;;4993974;28;20488;-69
2022/07/31 04:51:57;;;;;;;2.93;2.60;;;22.00;62.00;;;;;;4994200;28;20452;-69
2022/07/31 04:54:24;;;;;;;6.30;2.57;;;22.00;62.30;;;;;;4994950;28;20452;-69
2022/07/31 04:56:51;;;;;;;5.50;2.60;;;22.10;62.70;;;;;;4994638;28;20460;-69
2022/07/31 04:59:21;;;;;;;7.17;2.27;;;22.10;62.80;;;;;;4993972;28;20472;-69
2022/07/31 05:01:49;;;;;;;2.83;1.70;;;22.10;62.30;;;;;;4994064;28;20444;-69
2022/07/31 05:04:16;;;;;;;2.70;2.30;;;22.10;62.30;;;;;;4994067;28;20463;-69
2022/07/31 05:06:44;;;;;;;4.60;2.07;;;22.10;63.10;;;;;;4994574;28;20448;-69
2022/07/31 05:09:15;;;;;;;4.03;2.23;;;22.10;62.80;;;;;;4993460;28;20494;-69
2022/07/31 05:11:43;;;;;;;5.80;2.23;;;22.10;63.00;;;;;;4993710;28;20567;-69
2022/07/31 05:14:11;;;;;;;3.70;2.47;;;22.10;63.60;;;;;;4993641;28;20968;-69
2022/07/31 05:16:38;;;;;;;4.40;2.60;;;22.00;63.70;;;;;;4993964;28;20477;-69
2022/07/31 05:19:06;;;;;;;4.70;2.23;;;22.10;64.20;;;;;;4993801;28;20464;-69
2022/07/31 05:21:33;;;;;;;3.70;2.13;;;22.10;64.20;;;;;;4993956;28;20444;-69
2022/07/31 05:24:00;;;;;;;3.73;2.23;;;22.10;64.30;;;;;;4993916;28;20450;-69
2022/07/31 05:26:29;;;;;;;5.80;2.00;;;22.10;64.40;;;;;;4997770;28;20857;-69
2022/07/31 05:28:58;;;;;;;3.67;2.20;;;22.20;64.30;;;;;;4997251;28;21023;-69
2022/07/31 05:31:26;;;;;;;4.03;2.40;;;22.30;63.80;;;;;;4997401;28;20487;-69
2022/07/31 05:33:53;;;;;;;5.40;2.00;;;22.40;64.50;;;;;;4997349;28;20828;-69
2022/07/31 05:36:20;;;;;;;2.70;1.97;;;22.40;64.20;;;;;;4997617;28;20452;-69
2022/07/31 05:38:47;;;;;;;7.70;2.23;;;22.50;63.50;;;;;;4997494;28;20440;-69
2022/07/31 05:41:14;;;;;;;4.07;2.60;;;22.50;64.00;;;;;;4997481;28;20451;-69
2022/07/31 05:43:42;;;;;;;2.90;1.87;;;22.60;64.50;;;;;;4997150;28;20466;-69
2022/07/31 05:46:12;;;;;;;8.80;2.50;;;22.60;64.30;;;;;;4997409;28;20460;-69
2022/07/31 05:48:39;;;;;;;4.70;2.00;;;22.70;64.50;;;;;;4996931;28;21079;-69
2022/07/31 05:51:10;;;;;;;2.07;1.90;;;22.80;64.30;;;;;;4997274;28;20451;-69
2022/07/31 05:53:37;;;;;;;2.50;2.20;;;22.90;63.60;;;;;;4997352;28;20491;-69
2022/07/31 05:56:05;;;;;;;4.33;2.10;;;22.80;64.10;;;;;;4996924;28;20868;-69
2022/07/31 05:58:32;;;;;;;3.90;2.13;;;22.90;64.20;;;;;;4997153;28;20502;-69
2022/07/31 06:01:01;;;;;;;4.50;2.27;;;22.90;64.30;;;;;;4997109;28;20472;-69
2022/07/31 06:03:28;;;;;;;2.83;1.73;;;22.80;64.20;;;;;;4996740;28;20976;-69
2022/07/31 06:05:56;;;;;;;1.80;1.50;;;22.90;64.70;;;;;;4997112;28;20462;-69
2022/07/31 06:08:25;;;;;;;4.20;2.20;;;22.90;65.10;;;;;;4996955;28;20484;-69
2022/07/31 06:10:51;;;;;;;4.03;2.30;;;22.90;66.00;;;;;;4996844;28;20476;-69
2022/07/31 06:13:18;;;;;;;2.17;1.80;;;23.00;66.80;;;;;;4996616;28;20463;-69
2022/07/31 06:15:45;;;;;;;1.90;1.80;;;23.00;66.00;;;;;;4996616;28;20857;-69
2022/07/31 06:18:15;;;;;;;1.93;1.70;;;22.90;66.70;;;;;;4996933;28;20448;-69
2022/07/31 06:20:41;;;;;;;3.83;1.80;;;22.80;67.80;;;;;;4996184;28;21004;-69
2022/07/31 06:23:08;;;;;;;5.73;2.97;;;22.80;67.90;;;;;;4996795;28;20452;-69
2022/07/31 06:25:35;;;;;;;5.17;1.77;;;22.70;69.30;;;;;;4996757;28;20452;-69
2022/07/31 06:28:02;;;;;;;3.20;1.80;;;22.70;69.90;;;;;;4996324;28;20452;-69
2022/07/31 06:30:28;;;;;;;2.43;2.17;;;22.70;69.50;;;;;;4996677;28;20475;-69
2022/07/31 06:32:55;;;;;;;4.20;1.87;;;22.70;69.30;;;;;;4996594;28;20859;-69
2022/07/31 06:35:23;;;;;;;4.50;2.13;;;22.60;69.80;;;;;;4996184;28;20445;-68
2022/07/31 06:37:50;;;;;;;3.37;2.53;;;22.50;70.50;;;;;;4996184;28;20452;-69
2022/07/31 06:40:17;;;;;;;2.33;1.80;;;22.50;70.80;;;;;;4996315;28;20471;-69
2022/07/31 06:42:44;;;;;;;2.27;2.03;;;22.50;71.00;;;;;;4996434;28;20455;-69
2022/07/31 06:45:11;;;;;;;3.03;2.00;;;22.50;70.70;;;;;;4996338;28;20448;-69
2022/07/31 06:47:38;;;;;;;2.10;1.90;;;22.60;71.20;;;;;;4996251;28;20444;-69
2022/07/31 06:50:06;;;;;;;3.40;2.00;;;22.60;70.70;;;;;;4995839;28;20542;-69
2022/07/31 06:52:35;;;;;;;4.47;2.13;;;22.60;70.70;;;;;;4996285;28;20439;-69
2022/07/31 06:55:02;;;;;;;3.83;2.50;;;22.50;71.00;;;;;;4996115;28;20463;-69
2022/07/31 06:57:29;;;;;;;3.10;2.30;;;22.50;72.10;;;;;;4996132;28;20452;-69
2022/07/31 06:59:55;;;;;;;3.20;2.90;;;22.50;72.40;;;;;;4996019;28;20491;-69
2022/07/31 07:02:22;;;;;;;2.63;1.80;;;22.40;72.60;;;;;;4995679;28;20954;-69
2022/07/31 07:04:49;;;;;;;1.93;1.80;;;22.30;73.40;;;;;;4996027;28;20542;-69
2022/07/31 07:07:16;;;;;;;3.17;2.40;;;22.30;73.80;;;;;;4995982;28;20452;-69
2022/07/31 07:09:44;;;;;;;1.90;1.80;;;22.30;74.20;;;;;;4996278;28;20488;-69
2022/07/31 07:12:10;;;;;;;3.70;2.13;;;22.20;74.80;;;;;;4995599;28;20468;-69
2022/07/31 07:14:37;;;;;;;4.77;2.00;;;22.20;75.30;;;;;;4995842;28;20452;-69
2022/07/31 07:17:05;;;;;;;2.53;1.80;;;22.20;75.70;;;;;;4995786;28;20444;-69
2022/07/31 07:19:31;;;;;;;2.07;1.87;;;22.20;75.80;;;;;;4995612;28;20833;-69
2022/07/31 07:21:58;;;;;;;3.70;2.57;;;22.10;76.60;;;;;;4995686;28;20464;-69
2022/07/31 07:24:25;;;;;;;3.60;1.97;;;22.10;77.30;;;;;;4995641;28;20467;-69
2022/07/31 07:26:53;;;;;;;3.73;2.00;;;22.20;77.60;;;;;;4995504;28;20472;-69
2022/07/31 07:29:20;;;;;;;3.77;2.03;;;22.20;77.70;;;;;;4995376;28;20484;-69
2022/07/31 07:31:47;;;;;;;4.13;1.77;;;22.30;77.10;;;;;;4995460;28;20451;-69
2022/07/31 07:34:14;;;;;;;2.10;1.90;;;22.30;78.00;;;;;;4995422;28;20458;-69
2022/07/31 07:36:40;;;;;;;4.90;2.23;;;22.40;78.20;;;;;;4995379;28;20448;-69
2022/07/31 07:39:08;;;;;;;2.13;1.60;;;22.50;77.50;;;;;;4995269;28;20467;-69
2022/07/31 07:41:34;;;;;;;2.30;2.13;;;22.50;76.90;;;;;;4995297;28;20440;-69
2022/07/31 07:44:02;;;;;;;5.50;1.70;;;22.60;78.00;;;;;;4995282;28;20459;-69
2022/07/31 07:46:29;;;;;;;8.83;2.53;;;22.70;77.50;;;;;;4994744;28;20823;-69
2022/07/31 07:48:56;;;;;;;3.43;1.60;;;22.90;76.70;;;;;;4994377;28;20491;-69
2022/07/31 07:51:23;;;;;;;3.37;1.67;;;23.00;76.60;;;;;;4994840;28;20938;-69
2022/07/31 07:53:50;;;;;;;3.30;1.60;;;23.10;75.70;;;;;;4995074;28;20444;-69
2022/07/31 07:56:17;;;;;;;2.53;2.13;;;23.10;75.80;;;;;;4995081;28;20452;-69
2022/07/31 07:58:44;;;;;;;1.70;1.53;;;23.30;76.00;;;;;;4994858;28;20452;-69
2022/07/31 08:01:12;;;;;;;3.00;1.80;;;23.40;74.90;;;;;;4994921;28;20459;-69
2022/07/31 08:03:38;;;;;;;1.80;1.53;;;23.50;75.00;;;;;;4994831;28;20455;-68
2022/07/31 08:06:05;;;;;;;2.50;1.63;;;23.70;74.90;;;;;;4994886;28;20452;-68
2022/07/31 08:08:32;;;;;;;1.83;1.73;;;23.80;74.30;;;;;;4994798;28;20492;-68
2022/07/31 08:10:59;;;;;;;1.50;1.40;;;23.80;74.10;;;;;;4994502;28;20961;-68
2022/07/31 08:13:26;;;;;;;2.10;1.40;;;23.90;73.90;;;;;;4994395;28;20464;-69
2022/07/31 08:15:53;;;;;;;1.87;1.63;;;24.10;73.30;;;;;;4994739;28;20452;-69
2022/07/31 08:18:21;;;;;;;3.63;2.20;;;24.20;71.60;;;;;;4994336;28;20456;-69
2022/07/31 08:20:48;;;;;;;2.00;1.80;;;24.40;71.20;;;;;;4994190;28;21000;-69
2022/07/31 08:23:15;;;;;;;2.90;1.63;;;24.30;69.90;;;;;;4994616;28;20837;-69
2022/07/31 08:25:41;;;;;;;2.00;1.80;;;24.50;69.90;;;;;;4994231;28;20807;-69
2022/07/31 08:28:08;;;;;;;3.47;1.90;;;24.70;68.40;;;;;;4994409;28;20463;-69
2022/07/31 08:30:35;;;;;;;2.10;1.80;;;24.70;68.70;;;;;;4994035;28;20529;-69
2022/07/31 08:33:02;;;;;;;3.67;2.07;;;24.70;67.80;;;;;;4994403;28;20452;-69
2022/07/31 08:35:30;;;;;;;2.70;2.33;;;24.90;66.60;;;;;;4994409;28;20471;-69
2022/07/31 08:37:57;;;;;;;3.27;2.27;;;24.90;66.70;;;;;;4994098;28;20447;-69
2022/07/31 08:40:25;;;;;;;4.07;2.10;;;25.00;65.70;;;;;;4994224;28;20519;-69
2022/07/31 08:42:52;;;;;;;5.30;2.10;;;25.10;65.10;;;;;;4994339;28;20459;-69
2022/07/31 08:45:18;;;;;;;2.17;2.00;;;25.20;64.90;;;;;;4993965;28;20942;-69
2022/07/31 08:47:47;;;;;;;2.27;1.53;;;25.30;64.40;;;;;;4994263;28;20456;-69
2022/07/31 08:50:15;;;;;;;4.00;2.20;;;25.30;64.60;;;;;;4994021;28;20484;-69
2022/07/31 08:52:45;;;;;;;2.83;2.50;;;25.20;64.00;;;;;;4993879;28;20456;-69
2022/07/31 08:55:13;;;;;;;2.13;1.93;;;25.30;63.90;;;;;;4993882;28;20452;-69
2022/07/31 08:57:40;;;;;;;2.33;2.13;;;25.50;64.80;;;;;;4994060;28;20452;-69
2022/07/31 09:00:11;;;;;;;1.70;1.60;;;25.70;62.00;;;;;;4993579;28;21004;-69
2022/07/31 09:02:40;;;;;;;1.93;1.73;;;26.00;62.10;;;;;;4994066;28;20487;-69
2022/07/31 09:05:07;;;;;;;4.00;2.40;;;26.10;60.00;;;;;;4994093;28;20448;-69
2022/07/31 09:07:34;;;;;;;2.50;1.93;;;26.10;60.20;;;;;;4994049;28;20454;-69
2022/07/31 09:10:03;;;;;;;2.93;2.00;;;26.20;59.80;;;;;;4993808;28;20492;-69
2022/07/31 09:12:32;;;;;;;2.83;1.63;;;26.20;61.00;;;;;;4993626;28;20464;-69
2022/07/31 09:14:58;;;;;;;2.47;2.20;;;26.20;61.40;;;;;;4994049;28;20456;-69
2022/07/31 09:17:33;;;;;;;2.70;1.80;;;26.10;59.80;;;;;;4993947;28;20464;-69
2022/07/31 09:20:01;;;;;;;2.73;2.20;;;26.20;61.30;;;;;;4993835;28;20466;-69
2022/07/31 09:22:30;;;;;;;2.10;1.87;;;26.20;59.70;;;;;;4994074;28;20557;-69
2022/07/31 09:25:11;;;;;;;3.33;1.70;;;26.10;59.50;;;;;;4993925;28;20482;-69
2022/07/31 09:27:38;;;;;;;1.73;1.63;;;26.10;60.10;;;;;;4993931;28;20490;-69
2022/07/31 09:30:06;;;;;;;2.90;1.80;;;26.00;60.30;;;;;;4993646;28;20499;-69
2022/07/31 09:32:33;;;;;;;2.53;1.80;;;26.10;61.10;;;;;;4993832;28;20452;-68
2022/07/31 09:35:08;;;;;;;2.37;1.57;;;26.30;60.10;;;;;;4993839;28;20456;-69
2022/07/31 09:37:34;;;;;;;2.20;1.77;;;26.40;59.30;;;;;;4993840;28;20432;-68
2022/07/31 09:40:01;;;;;;;3.60;1.57;;;26.50;58.70;;;;;;4993678;28;20479;-68
2022/07/31 09:42:38;;;;;;;3.00;1.70;;;26.60;59.70;;;;;;4993774;28;20436;-69
2022/07/31 09:45:16;;;;;;;2.17;1.97;;;26.80;58.30;;;;;;4993481;28;20803;-69
2022/07/31 09:47:43;;;;;;;2.00;1.67;;;26.90;58.40;;;;;;4993495;28;20495;-69
2022/07/31 09:50:10;;;;;;;3.85;1.92;;;27.00;57.80;;;;;;4993292;28;20453;-69
2022/07/31 09:52:37;;;;;;;7.03;2.23;;;27.00;58.40;;;;;;4993718;28;20208;-69
2022/07/31 09:55:06;;;;;;;1.40;1.30;;;27.20;58.60;;;;;;4993724;28;20452;-69
2022/07/31 09:57:34;;;;;;;4.97;1.60;;;27.40;58.60;;;;;;4993244;28;20825;-69
2022/07/31 10:00:04;;;;;;;2.40;2.17;;;27.40;57.30;;;;;;4994118;28;20555;-69
2022/07/31 10:02:31;;;;;;;2.33;1.80;;;27.50;56.80;;;;;;4993519;28;20444;-69
2022/07/31 10:04:59;;;;;;;2.37;2.10;;;27.30;56.40;;;;;;4993492;28;20452;-69
2022/07/31 10:07:28;;;;;;;2.10;1.20;;;27.20;56.60;;;;;;4993567;28;20455;-69
2022/07/31 10:09:56;;;;;;;1.50;1.30;;;27.30;56.80;;;;;;4993373;28;20488;-69
2022/07/31 10:12:27;;;;;;;1.80;1.70;;;27.40;56.50;;;;;;4996566;28;20463;-69
2022/07/31 10:14:58;;;;;;;3.40;1.50;;;27.60;55.90;;;;;;4996978;28;20437;-69
2022/07/31 10:17:30;;;;;;;2.03;1.77;;;27.70;55.50;;;;;;4996991;28;20464;-69
2022/07/31 10:20:01;;;;;;;2.50;1.43;;;28.00;55.30;;;;;;4996799;28;20476;-69
2022/07/31 10:22:32;;;;;;;1.70;1.60;;;28.30;54.30;;;;;;4996849;28;20436;-70
2022/07/31 10:25:01;;;;;;;2.37;2.07;;;28.70;54.90;;;;;;4996760;28;20436;-69
2022/07/31 10:27:29;;;;;;;3.40;2.00;;;29.10;53.90;;;;;;4996712;28;20452;-69
2022/07/31 10:29:57;;;;;;;3.80;1.43;;;29.30;51.60;;;;;;4996487;28;20488;-69
2022/07/31 10:32:24;;;;;;;2.13;1.80;;;29.50;51.70;;;;;;4996497;28;20448;-68
2022/07/31 10:34:52;;;;;;;1.60;1.50;;;29.80;50.20;;;;;;4996445;28;20444;-68
2022/07/31 10:37:37;;;;;;;6.90;1.67;;;29.90;49.10;;;;;;4996554;28;20448;-67
2022/07/31 10:40:11;;;;;;;4.17;1.77;;;29.80;49.80;;;;;;4996380;28;20479;-68
2022/07/31 10:42:44;;;;;;;2.43;2.23;;;29.70;49.30;;;;;;4996496;28;20441;-68
2022/07/31 10:45:13;;;;;;;2.23;1.53;;;29.70;49.90;;;;;;4996115;28;20472;-68
2022/07/31 10:47:40;;;;;;;2.37;2.10;;;29.50;49.80;;;;;;4996409;28;20456;-68
2022/07/31 10:50:20;;;;;;;4.93;1.83;;;29.50;50.90;;;;;;4996145;28;20488;-68
2022/07/31 10:52:47;;;;;;;2.17;1.57;;;29.40;50.70;;;;;;4996284;28;20432;-67
2022/07/31 10:55:20;;;;;;;2.57;2.07;;;29.30;49.90;;;;;;4996256;28;20900;-68
2022/07/31 10:57:47;;;;;;;2.23;1.90;;;29.30;48.80;;;;;;4995884;28;20444;-68
2022/07/31 11:00:17;;;;;;;2.00;1.80;;;29.30;49.70;;;;;;4995900;28;20480;-68
2022/07/31 11:02:44;;;;;;;2.30;1.40;;;29.00;49.90;;;;;;4996033;28;20503;-68
2022/07/31 11:05:15;;;;;;;1.70;1.60;;;28.90;50.80;;;;;;4995680;28;20946;-68
2022/07/31 11:07:44;;;;;;;6.33;2.20;;;28.70;50.40;;;;;;4995726;28;20798;-67
2022/07/31 11:10:13;;;;;;;4.13;2.03;;;28.60;50.50;;;;;;4995631;28;20578;-67
2022/07/31 11:12:40;;;;;;;5.57;2.50;;;28.50;51.70;;;;;;4995428;28;20833;-67
2022/07/31 11:15:18;;;;;;;6.93;2.00;;;28.30;51.90;;;;;;4995745;28;20514;-67
2022/07/31 11:17:45;;;;;;;3.30;1.90;;;28.10;54.20;;;;;;4995225;28;20449;-67
2022/07/31 11:20:24;;;;;;;1.90;1.70;;;28.10;53.50;;;;;;4995618;28;20228;-68
2022/07/31 11:22:56;;;;;;;2.53;1.80;;;28.40;52.40;;;;;;4994550;28;20436;-67
2022/07/31 11:25:24;;;;;;;2.43;1.70;;;28.90;52.30;;;;;;4995660;28;20444;-68
2022/07/31 11:27:51;;;;;;;2.63;1.80;;;29.50;49.80;;;;;;4995644;28;20452;-67
2022/07/31 11:30:18;;;;;;;1.80;1.40;;;30.10;48.50;;;;;;4995431;28;20506;-67
2022/07/31 11:32:48;;;;;;;2.00;1.70;;;30.70;45.90;;;;;;4995464;28;20452;-67
2022/07/31 11:35:29;;;;;;;2.10;1.90;;;30.80;45.20;;;;;;4993670;28;20922;-67
2022/07/31 12:48:23;;;;;;;3.10;2.80;;;29.70;48.40;;;;;;6251027;23;20493;-64
2022/07/31 12:58:36;;;;;;;3.43;2.97;;;30.80;47.50;;;;;;6252026;22;20432;-72
2022/07/31 13:01:03;;;;;;;3.50;3.20;;;31.10;46.20;;;;;;6316295;22;20413;-65
2022/07/31 13:03:31;;;;;;;3.03;2.77;;;31.30;44.80;;;;;;6316169;22;20713;-66
2022/07/31 13:05:57;;;;;;;8.33;3.10;;;31.60;44.20;;;;;;6313131;22;20438;-67
2022/07/31 13:08:24;;;;;;;2.90;2.70;;;31.80;43.10;;;;;;6298327;22;20438;-66
2022/07/31 13:10:51;;;;;;;3.43;3.07;;;31.90;43.10;;;;;;6283529;22;20903;-67
2022/07/31 13:13:19;;;;;;;6.30;3.27;;;31.90;43.90;;;;;;6285925;22;20404;-66
2022/07/31 13:15:45;;;;;;;3.40;3.17;;;31.60;43.80;;;;;;6288073;22;20844;-65
2022/07/31 13:18:12;;;;;;;3.10;2.90;;;31.30;43.70;;;;;;6283901;22;20544;-66
2022/07/31 13:20:40;;;;;;;3.50;3.30;;;31.00;44.60;;;;;;6284611;22;20423;-66
2022/07/31 13:23:07;;;;;;;3.40;3.10;;;30.70;45.70;;;;;;6283624;22;20412;-66
2022/07/31 13:25:34;;;;;;;4.00;3.27;;;30.50;46.70;;;;;;6285143;22;20442;-68
2022/07/31 13:28:01;;;;;;;4.00;3.70;;;30.40;47.40;;;;;;6289488;22;20959;-67
2022/07/31 13:30:28;;;;;;;4.67;3.27;;;30.30;46.30;;;;;;6290107;22;20490;-68
2022/07/31 13:32:56;;;;;;;4.30;3.27;;;30.30;47.30;;;;;;6291016;22;20453;-68
2022/07/31 13:35:24;;;;;;;3.23;3.03;;;30.40;47.20;;;;;;6288216;22;20404;-68
2022/07/31 13:37:53;;;;;;;3.40;3.20;;;30.60;46.50;;;;;;6282694;22;20435;-67
2022/07/31 13:41:19;;;;;;;4.03;3.47;;;30.70;45.50;;;;;;6281705;22;20919;-68
2022/07/31 13:43:07;;;;;;;3.43;3.23;;;30.70;45.20;;;;;;6277827;22;20408;-69
2022/07/31 13:45:34;;;;;;;6.60;3.67;;;30.60;45.40;;;;;;6279646;22;20510;-69
2022/07/31 13:48:00;;;;;;;4.07;3.40;;;30.60;45.90;;;;;;6282250;22;21005;-67
2022/07/31 13:50:27;;;;;;;3.30;2.90;;;30.70;45.60;;;;;;6282852;22;20389;-69
2022/07/31 13:52:57;;;;;;;2.87;2.67;;;30.80;45.00;;;;;;6283272;22;20410;-68
2022/07/31 13:55:24;;;;;;;3.53;3.07;;;30.80;45.30;;;;;;6277541;22;20435;-74
2022/07/31 13:57:51;;;;;;;3.13;2.93;;;30.80;44.90;;;;;;6281699;22;20432;-69
2022/07/31 14:00:18;;;;;;;3.40;2.80;;;30.90;44.20;;;;;;6288658;22;20418;-67
2022/07/31 14:02:45;;;;;;;3.90;2.97;;;31.40;44.60;;;;;;6284361;22;20462;-67
2022/07/31 14:05:12;;;;;;;5.30;3.57;;;32.00;42.90;;;;;;6279669;22;20414;-64
2022/07/31 14:07:39;;;;;;;4.30;2.90;;;32.10;42.20;;;;;;6276282;22;20428;-71
2022/07/31 14:10:08;;;;;;;3.00;2.80;;;31.80;42.10;;;;;;6279702;22;20926;-73